Pine Cliff, Utah
Current Conditions -  °F | °C
As of 8:53 PM on Friday 24 Oct 2014 (Local Time) from KEVW Reporting Station
Clear Clear  
Wind Chill: 56°   Ceiling: Unl
Heat Index: 56°   Visibility: 10mi
Dew Point: 24°   Wind: 5mph
Humidity: 29%   Direction: 180°S
Pressure: 30.27"   Gusts: NA
Location:  40.9431°N, 111.212°W
Report Text: KEVW 250253Z AUTO 18004KT 10SM CLR 13/M04 A3027 RMK AO2 SLP185 T01331044 51005 TSNO
Loading
Personal Weather Stations






























Interactive Weather Map New forecast layout! Learn more

10-Day Weather Forecast

Advertisements
Track Severe Weather on mobile